Alton, Illinois
Current Conditions -  °F | °C
As of 1:50 PM on Monday 26 Jan 2015 (Local Time) from KALN Reporting Station
Overcast Overcast  
Wind Chill: -3°   Ceiling: 7000
Heat Index:   Visibility: 10mi
Dew Point: -2°   Wind: 9mph
Humidity: 81%   Direction: 170°S
Pressure: 29.9"   Gusts: NA
Location:  38.89°N, 90.18°W
Report Text: KALN 261950Z 17008KT 10SM OVC070 01/M02 A2990
Loading
Personal Weather Stations






























Interactive Weather Map New forecast layout! Learn more

10-Day Weather Forecast

Advertisements
Track Severe Weather on mobile